Time;durP1;ratioP1;P1;durP2;ratioP2;P2;SDS_P1;SDS_P2;PMS_P1;PMS_P2;Temp;Humidity;BMP_temperature;BMP_pressure;BME280_temperature;BME280_humidity;BME280_pressure;Samples;Min_cycle;Max_cycle;Signal;HPM_P1;HPM_P2
2023/01/22 00:01:37;;;;;;;2.67;1.77;;;6.90;96.70;;;;;;4880100;29;20084;-72
2023/01/22 00:04:05;;;;;;;3.08;1.70;;;6.90;96.70;;;;;;4904528;29;20064;-72
2023/01/22 00:06:34;;;;;;;4.45;1.33;;;6.90;96.70;;;;;;4891548;29;20593;-72
2023/01/22 00:09:03;;;;;;;2.10;1.30;;;6.90;96.70;;;;;;4871910;29;20063;-72
2023/01/22 00:11:31;;;;;;;2.20;1.30;;;6.90;96.70;;;;;;4885583;29;20159;-73
2023/01/22 00:13:59;;;;;;;1.73;1.02;;;6.90;96.70;;;;;;4891726;29;20055;-72
2023/01/22 00:16:27;;;;;;;2.83;1.45;;;6.90;96.70;;;;;;4885649;29;20064;-73
2023/01/22 00:18:55;;;;;;;2.67;1.30;;;6.90;96.70;;;;;;4886137;29;20689;-72
2023/01/22 00:21:23;;;;;;;2.92;1.42;;;6.90;96.70;;;;;;4886808;29;20107;-72
2023/01/22 00:23:53;;;;;;;1.73;1.02;;;6.90;96.70;;;;;;4869928;29;20056;-72
2023/01/22 00:26:22;;;;;;;2.00;1.38;;;6.90;96.70;;;;;;4885584;29;20206;-72
2023/01/22 00:28:50;;;;;;;3.03;1.20;;;6.90;96.70;;;;;;4898152;29;20131;-72
2023/01/22 00:31:18;;;;;;;2.03;1.52;;;6.90;96.70;;;;;;4887567;29;20485;-72
2023/01/22 00:33:47;;;;;;;2.15;1.30;;;6.90;96.70;;;;;;4887883;29;20139;-72
2023/01/22 00:36:17;;;;;;;2.38;1.30;;;6.90;96.70;;;;;;4902664;29;20084;-71
2023/01/22 00:38:48;;;;;;;2.15;1.20;;;6.90;96.70;;;;;;4902904;29;20061;-72
2023/01/22 00:41:19;;;;;;;1.80;1.00;;;6.90;96.70;;;;;;4899847;29;20076;-72
2023/01/22 00:43:47;;;;;;;2.60;1.05;;;6.90;96.70;;;;;;4886609;29;20056;-72
2023/01/22 00:46:19;;;;;;;2.47;1.30;;;6.90;96.70;;;;;;4904613;29;20111;-72
2023/01/22 00:48:50;;;;;;;2.67;1.15;;;6.90;96.70;;;;;;4886305;29;20036;-72
2023/01/22 00:51:19;;;;;;;3.47;1.48;;;6.90;96.70;;;;;;4869418;29;20084;-72
2023/01/22 00:53:47;;;;;;;2.15;1.17;;;6.90;96.70;;;;;;4885106;29;20250;-72
2023/01/22 00:56:17;;;;;;;2.38;1.73;;;6.90;96.70;;;;;;4890900;29;20099;-72
2023/01/22 00:58:45;;;;;;;1.90;1.17;;;6.80;96.70;;;;;;4900629;29;20092;-72
2023/01/22 01:01:14;;;;;;;1.90;1.30;;;6.80;96.70;;;;;;4901807;29;20080;-72
2023/01/22 01:03:42;;;;;;;1.95;0.95;;;6.90;96.70;;;;;;4895304;29;20052;-72
2023/01/22 01:06:13;;;;;;;2.90;1.65;;;6.80;96.70;;;;;;4930931;28;20058;-72
2023/01/22 01:08:42;;;;;;;1.60;1.00;;;6.80;96.70;;;;;;4937237;29;20047;-72
2023/01/22 01:11:15;;;;;;;1.75;1.23;;;6.80;96.70;;;;;;4960446;28;20520;-72
2023/01/22 01:13:45;;;;;;;2.00;1.10;;;6.80;96.70;;;;;;4962624;28;20494;-72
2023/01/22 01:16:16;;;;;;;1.85;0.80;;;6.80;96.70;;;;;;4959396;28;20580;-72
2023/01/22 01:18:45;;;;;;;2.08;1.10;;;6.80;96.70;;;;;;4955659;28;20067;-72
2023/01/22 01:21:14;;;;;;;2.50;1.00;;;6.80;96.70;;;;;;4947925;28;20065;-72
2023/01/22 01:23:42;;;;;;;1.48;0.88;;;6.90;96.70;;;;;;4942887;28;20082;-71
2023/01/22 01:26:11;;;;;;;2.00;1.15;;;6.80;96.70;;;;;;4943931;28;20833;-72
2023/01/22 01:28:41;;;;;;;2.42;1.17;;;6.80;96.70;;;;;;4943187;28;20698;-71
2023/01/22 01:31:12;;;;;;;2.28;0.85;;;6.80;96.70;;;;;;4947899;28;20097;-72
2023/01/22 01:33:41;;;;;;;2.70;1.05;;;6.90;96.70;;;;;;4977613;28;20554;-72
2023/01/22 01:36:12;;;;;;;2.83;1.23;;;6.80;96.70;;;;;;4962639;28;20043;-72
2023/01/22 01:38:40;;;;;;;2.60;1.05;;;6.90;96.70;;;;;;4961155;28;20150;-71
2023/01/22 01:41:11;;;;;;;1.40;0.98;;;6.90;96.70;;;;;;4961639;28;20122;-71
2023/01/22 01:43:39;;;;;;;1.95;1.13;;;6.90;96.70;;;;;;4963576;28;20051;-72
2023/01/22 01:46:17;;;;;;;2.60;1.40;;;6.90;96.70;;;;;;4971755;28;20035;-72
2023/01/22 01:48:47;;;;;;;1.70;0.90;;;6.90;96.70;;;;;;4943616;28;20058;-72
2023/01/22 01:51:22;;;;;;;3.05;1.35;;;6.90;96.70;;;;;;4938092;28;20043;-72
2023/01/22 01:53:50;;;;;;;1.88;1.05;;;6.90;96.70;;;;;;4964617;28;20113;-72
2023/01/22 01:56:22;;;;;;;1.60;0.88;;;6.90;96.70;;;;;;4962562;28;20050;-72
2023/01/22 01:58:55;;;;;;;3.55;1.10;;;6.90;96.70;;;;;;4953495;28;20142;-72
2023/01/22 02:01:25;;;;;;;1.15;0.82;;;6.90;96.70;;;;;;4947757;28;20051;-73
2023/01/22 02:03:53;;;;;;;2.53;1.10;;;6.90;96.70;;;;;;4946375;28;20107;-73
2023/01/22 02:06:21;;;;;;;2.58;1.20;;;6.90;96.70;;;;;;4958964;28;20241;-72
2023/01/22 02:08:50;;;;;;;2.53;1.10;;;6.90;96.70;;;;;;4945850;28;20051;-72
2023/01/22 02:11:19;;;;;;;2.67;0.70;;;6.90;96.70;;;;;;4976608;28;20452;-72
2023/01/22 02:13:50;;;;;;;1.73;0.95;;;6.90;96.70;;;;;;4965275;28;20487;-72
2023/01/22 02:16:19;;;;;;;2.58;1.17;;;6.90;96.70;;;;;;4980477;28;20051;-73
2023/01/22 02:18:49;;;;;;;1.60;1.10;;;6.90;96.70;;;;;;4951556;28;20039;-72
2023/01/22 02:21:42;;;;;;;2.22;1.40;;;6.90;96.70;;;;;;4947596;28;20055;-72
2023/01/22 02:24:12;;;;;;;2.25;0.95;;;6.90;96.70;;;;;;4950124;28;20051;-72
2023/01/22 02:26:41;;;;;;;3.53;0.93;;;6.90;96.70;;;;;;4945745;28;20718;-72
2023/01/22 02:29:12;;;;;;;2.15;1.33;;;6.90;96.70;;;;;;4950475;28;20039;-72
2023/01/22 02:31:41;;;;;;;2.85;1.30;;;6.90;96.70;;;;;;4953611;28;20051;-72
2023/01/22 02:34:09;;;;;;;3.13;1.30;;;6.80;96.70;;;;;;4965638;28;20043;-72
2023/01/22 02:36:39;;;;;;;1.88;1.20;;;6.80;96.70;;;;;;4975667;28;20153;-72
2023/01/22 02:39:08;;;;;;;2.47;1.50;;;6.80;96.70;;;;;;4967178;28;20527;-72
2023/01/22 02:41:37;;;;;;;3.30;1.83;;;6.70;96.70;;;;;;4958790;28;20520;-72
2023/01/22 02:44:06;;;;;;;2.08;1.48;;;6.70;96.70;;;;;;4945632;28;20043;-72
2023/01/22 02:46:34;;;;;;;3.53;1.40;;;6.70;96.70;;;;;;4945199;28;20094;-72
2023/01/22 02:49:02;;;;;;;2.35;1.55;;;6.80;96.70;;;;;;4946825;28;20043;-72
2023/01/22 02:51:31;;;;;;;2.00;0.90;;;6.70;96.70;;;;;;4945874;28;20142;-72
2023/01/22 02:53:59;;;;;;;3.80;1.00;;;6.80;96.70;;;;;;4947630;28;20510;-72
2023/01/22 02:56:29;;;;;;;1.92;0.88;;;6.80;96.70;;;;;;4960759;28;20145;-72
2023/01/22 02:58:59;;;;;;;1.25;0.75;;;6.90;96.70;;;;;;4964506;28;20050;-72
2023/01/22 03:01:27;;;;;;;1.88;0.90;;;6.90;96.70;;;;;;4963602;28;20046;-72
2023/01/22 03:03:58;;;;;;;3.03;0.73;;;6.90;96.70;;;;;;4961806;28;20058;-72
2023/01/22 03:06:28;;;;;;;2.10;0.82;;;6.90;96.70;;;;;;4958190;28;20057;-72
2023/01/22 03:09:00;;;;;;;1.30;1.00;;;6.90;96.70;;;;;;4963535;28;20094;-72
2023/01/22 03:11:35;;;;;;;1.10;1.00;;;6.90;96.70;;;;;;4963345;28;20123;-72
2023/01/22 03:22:29;;;;;;;2.73;0.77;;;6.90;96.70;;;;;;4949159;28;20062;-72
2023/01/22 03:24:59;;;;;;;2.40;0.93;;;6.90;96.70;;;;;;4954388;28;20133;-73
2023/01/22 03:27:30;;;;;;;1.98;0.93;;;6.90;96.70;;;;;;4953902;28;20145;-72
2023/01/22 03:29:58;;;;;;;3.28;1.00;;;6.90;96.70;;;;;;4963921;28;20051;-73
2023/01/22 03:32:30;;;;;;;1.20;0.80;;;6.90;96.70;;;;;;4963711;28;20144;-72
2023/01/22 03:34:58;;;;;;;1.17;0.75;;;6.90;96.70;;;;;;4964119;28;20055;-73
2023/01/22 03:37:32;;;;;;;1.33;0.82;;;6.90;96.70;;;;;;4955245;28;20095;-73
2023/01/22 03:40:00;;;;;;;1.85;0.90;;;6.90;96.70;;;;;;4979337;28;20074;-73
2023/01/22 03:42:36;;;;;;;1.45;0.77;;;6.90;96.70;;;;;;4954771;28;20054;-73
2023/01/22 03:45:08;;;;;;;1.70;0.90;;;6.90;96.70;;;;;;4944812;28;20051;-73
2023/01/22 03:47:37;;;;;;;3.33;1.10;;;6.90;96.70;;;;;;4944598;28;20062;-73
2023/01/22 03:50:19;;;;;;;1.92;1.10;;;6.90;96.70;;;;;;4952174;28;20051;-73
2023/01/22 03:52:47;;;;;;;1.30;1.00;;;6.80;96.70;;;;;;4960041;28;20050;-73
2023/01/22 03:55:15;;;;;;;1.58;1.02;;;6.80;96.70;;;;;;4944279;28;20043;-73
2023/01/22 03:57:45;;;;;;;1.77;1.20;;;6.80;96.70;;;;;;4944650;28;20051;-73
2023/01/22 04:00:14;;;;;;;2.10;1.17;;;6.80;96.70;;;;;;4944875;28;20498;-73
2023/01/22 04:02:42;;;;;;;1.60;0.95;;;6.80;96.70;;;;;;4945508;28;20046;-73
2023/01/22 04:05:19;;;;;;;1.67;0.80;;;6.80;96.70;;;;;;4945583;28;20047;-73
2023/01/22 04:07:49;;;;;;;2.90;1.20;;;6.80;96.70;;;;;;4946652;28;20105;-73
2023/01/22 04:10:20;;;;;;;2.40;0.90;;;6.80;96.70;;;;;;4973429;28;20129;-73
2023/01/22 04:12:51;;;;;;;6.18;3.55;;;6.80;96.70;;;;;;4944151;28;20043;-73
2023/01/22 04:15:21;;;;;;;2.20;1.42;;;6.80;96.70;;;;;;4977493;28;20142;-73
2023/01/22 04:17:50;;;;;;;12.93;6.10;;;6.70;96.70;;;;;;4978335;28;20051;-73
2023/01/22 04:20:46;;;;;;;2.67;1.48;;;6.60;96.70;;;;;;4960548;28;20057;-73
2023/01/22 04:23:20;;;;;;;5.13;2.53;;;6.60;96.70;;;;;;4968894;28;20620;-73
2023/01/22 04:25:51;;;;;;;2.72;1.90;;;6.60;96.70;;;;;;4943861;28;20054;-73
2023/01/22 04:28:21;;;;;;;3.85;1.90;;;6.60;96.70;;;;;;4943929;28;20051;-73
2023/01/22 04:30:53;;;;;;;4.30;2.60;;;6.60;96.70;;;;;;4951024;28;20062;-74
2023/01/22 04:33:33;;;;;;;8.48;4.10;;;6.60;96.70;;;;;;4970829;28;20058;-73
2023/01/22 04:36:07;;;;;;;2.65;1.48;;;6.70;96.70;;;;;;4975712;28;20799;-74
2023/01/22 04:38:35;;;;;;;4.13;1.58;;;6.70;96.70;;;;;;4959417;28;20105;-73
2023/01/22 04:41:03;;;;;;;3.30;1.50;;;6.70;96.70;;;;;;4946221;28;20727;-73
2023/01/22 04:43:32;;;;;;;2.55;1.08;;;6.60;96.70;;;;;;4953674;28;20239;-73
2023/01/22 04:46:02;;;;;;;3.25;2.10;;;6.70;96.70;;;;;;4961568;28;20081;-73
2023/01/22 04:48:31;;;;;;;2.30;1.52;;;6.70;96.70;;;;;;4952021;28;20043;-73
2023/01/22 04:50:59;;;;;;;2.95;1.80;;;6.70;96.70;;;;;;4943614;28;20051;-73
2023/01/22 04:53:30;;;;;;;2.42;1.17;;;6.80;96.70;;;;;;4943634;28;20512;-73
2023/01/22 04:55:58;;;;;;;2.13;0.82;;;6.70;96.70;;;;;;4942834;28;20074;-73
2023/01/22 04:58:27;;;;;;;1.20;0.60;;;6.70;96.70;;;;;;4937172;28;20051;-73
2023/01/22 05:00:59;;;;;;;0.63;0.40;;;6.70;96.70;;;;;;4943687;28;20517;-73
2023/01/22 05:03:27;;;;;;;0.80;0.30;;;6.80;96.70;;;;;;4949952;28;20420;-73
2023/01/22 05:05:56;;;;;;;0.85;0.47;;;6.80;96.70;;;;;;4968982;28;20886;-73
2023/01/22 05:08:24;;;;;;;0.77;0.40;;;6.80;96.70;;;;;;4943769;28;20132;-73
2023/01/22 05:10:52;;;;;;;1.08;0.43;;;6.80;96.70;;;;;;4948107;28;20059;-73
2023/01/22 05:13:25;;;;;;;1.17;0.40;;;6.80;96.70;;;;;;4943898;28;20494;-73
2023/01/22 05:15:53;;;;;;;1.05;0.40;;;6.80;96.70;;;;;;4949196;28;20090;-73
2023/01/22 05:18:24;;;;;;;0.73;0.30;;;6.90;96.70;;;;;;4945224;28;20130;-73
2023/01/22 05:20:52;;;;;;;0.77;0.50;;;6.90;96.70;;;;;;4947332;28;20042;-73
2023/01/22 05:23:23;;;;;;;1.40;0.40;;;6.90;96.70;;;;;;4978203;28;20054;-73
2023/01/22 05:25:50;;;;;;;0.70;0.35;;;6.80;96.70;;;;;;4961588;28;20051;-73
2023/01/22 05:28:26;;;;;;;0.63;0.35;;;6.80;96.70;;;;;;4962914;28;20047;-73
2023/01/22 05:31:15;;;;;;;0.40;0.30;;;6.80;96.70;;;;;;4959266;28;20078;-73
2023/01/22 05:34:05;;;;;;;0.82;0.60;;;6.80;96.70;;;;;;4960507;28;20072;-73
2023/01/22 05:36:33;;;;;;;0.98;0.40;;;6.80;96.70;;;;;;4955650;28;20055;-73
2023/01/22 05:39:21;;;;;;;0.40;0.30;;;6.80;96.70;;;;;;4947906;28;20055;-73
2023/01/22 05:41:53;;;;;;;0.52;0.25;;;6.80;96.70;;;;;;4936464;28;21309;-73
2023/01/22 05:44:21;;;;;;;0.45;0.20;;;6.80;96.70;;;;;;4965801;28;20084;-73
2023/01/22 05:46:52;;;;;;;1.58;0.30;;;6.80;96.70;;;;;;4958719;28;20055;-73
2023/01/22 05:49:35;;;;;;;0.50;0.20;;;6.80;96.70;;;;;;4954839;28;20058;-73
2023/01/22 05:52:05;;;;;;;0.10;0.10;;;6.90;96.70;;;;;;4958181;28;20109;-72
2023/01/22 05:54:33;;;;;;;0.63;0.20;;;6.80;96.70;;;;;;4965740;28;20397;-72
2023/01/22 05:57:02;;;;;;;0.13;0.08;;;6.80;96.70;;;;;;4957409;28;20098;-73
2023/01/22 05:59:30;;;;;;;0.75;0.15;;;6.90;96.70;;;;;;4972150;28;20192;-73
2023/01/22 06:02:02;;;;;;;0.52;0.10;;;6.90;96.70;;;;;;4960978;28;20124;-73
2023/01/22 06:04:31;;;;;;;0.17;0.10;;;6.90;96.70;;;;;;4946751;28;20058;-73
2023/01/22 06:07:10;;;;;;;0.20;0.10;;;6.90;96.70;;;;;;4953765;28;20432;-73
2023/01/22 06:09:38;;;;;;;1.25;0.08;;;6.90;96.70;;;;;;4965813;28;20499;-73
2023/01/22 06:12:06;;;;;;;0.17;0.05;;;6.90;96.70;;;;;;4963399;28;20482;-73
2023/01/22 06:14:34;;;;;;;0.25;0.10;;;6.90;96.70;;;;;;4957068;28;20070;-73
2023/01/22 06:17:03;;;;;;;2.55;0.30;;;6.90;96.70;;;;;;4952743;28;20413;-73
2023/01/22 06:19:37;;;;;;;0.70;0.28;;;6.90;96.70;;;;;;4946618;28;20523;-73
2023/01/22 06:22:05;;;;;;;1.92;0.30;;;6.90;96.70;;;;;;4959675;28;20549;-73
2023/01/22 06:24:46;;;;;;;0.32;0.00;;;6.90;96.70;;;;;;4946683;28;20077;-73
2023/01/22 06:27:17;;;;;;;1.08;0.30;;;6.80;96.70;;;;;;4964300;28;20058;-73
2023/01/22 06:29:59;;;;;;;0.30;0.10;;;6.80;96.70;;;;;;4964354;28;20047;-72
2023/01/22 06:32:27;;;;;;;0.43;0.40;;;6.80;96.70;;;;;;4980711;28;20053;-73
2023/01/22 06:34:55;;;;;;;0.43;0.20;;;6.80;96.70;;;;;;4965670;28;20053;-73
2023/01/22 06:37:23;;;;;;;0.20;0.10;;;6.80;96.70;;;;;;4965672;28;20849;-73
2023/01/22 06:39:53;;;;;;;0.65;0.38;;;6.90;96.70;;;;;;4963839;28;20054;-75
2023/01/22 06:42:26;;;;;;;0.60;0.50;;;6.90;96.70;;;;;;4965704;28;20059;-73
2023/01/22 06:44:55;;;;;;;0.30;0.20;;;6.90;96.70;;;;;;4964658;28;20097;-73
2023/01/22 06:47:26;;;;;;;0.20;0.10;;;6.90;96.70;;;;;;4964451;28;20051;-73
2023/01/22 06:49:55;;;;;;;0.40;0.10;;;6.90;96.70;;;;;;4964073;28;20098;-73
2023/01/22 06:52:23;;;;;;;0.52;0.20;;;6.90;96.70;;;;;;4959854;28;20039;-73
2023/01/22 06:54:51;;;;;;;0.20;0.10;;;6.90;96.70;;;;;;4961894;28;20047;-73
2023/01/22 06:57:20;;;;;;;0.35;0.20;;;6.90;96.70;;;;;;4955893;28;20057;-73
2023/01/22 06:59:48;;;;;;;0.25;0.17;;;6.90;96.70;;;;;;4945297;28;20153;-73
2023/01/22 07:02:17;;;;;;;0.08;0.08;;;6.90;96.70;;;;;;4954333;28;20074;-73
2023/01/22 07:04:45;;;;;;;1.23;0.30;;;7.00;96.70;;;;;;4963131;28;20074;-74
2023/01/22 07:07:13;;;;;;;1.90;0.17;;;7.00;96.70;;;;;;4955410;28;20117;-74
2023/01/22 07:09:41;;;;;;;0.40;0.10;;;7.00;96.70;;;;;;4963805;28;20556;-73
2023/01/22 07:12:09;;;;;;;0.10;0.10;;;7.00;96.70;;;;;;4963095;28;20042;-73
2023/01/22 07:14:39;;;;;;;0.35;0.10;;;7.00;96.70;;;;;;4963828;28;20051;-73
2023/01/22 07:17:07;;;;;;;0.35;0.10;;;7.00;96.70;;;;;;4963912;28;20389;-73
2023/01/22 07:19:35;;;;;;;0.85;0.20;;;7.00;96.70;;;;;;4963280;28;20043;-73
2023/01/22 07:22:03;;;;;;;0.95;0.50;;;7.00;96.70;;;;;;4963322;28;20094;-74
2023/01/22 07:24:31;;;;;;;1.08;0.40;;;7.00;96.70;;;;;;4963629;28;20057;-73
2023/01/22 07:27:00;;;;;;;0.88;0.50;;;7.00;96.70;;;;;;4964422;28;20136;-73
2023/01/22 07:29:29;;;;;;;0.85;0.50;;;7.00;96.70;;;;;;4971972;28;20170;-73
2023/01/22 07:31:58;;;;;;;0.60;0.50;;;7.00;96.70;;;;;;4960808;28;20042;-73
2023/01/22 07:34:26;;;;;;;1.83;0.50;;;6.90;96.70;;;;;;4963350;28;20531;-73
2023/01/22 07:36:54;;;;;;;0.82;0.40;;;7.00;96.70;;;;;;4964676;28;20074;-73
2023/01/22 07:39:22;;;;;;;1.58;0.38;;;7.00;96.70;;;;;;4964337;28;20105;-73
2023/01/22 07:41:50;;;;;;;0.52;0.38;;;7.00;96.70;;;;;;4960908;28;20508;-73
2023/01/22 07:44:18;;;;;;;1.05;0.50;;;7.00;96.70;;;;;;4963035;28;20460;-74
2023/01/22 07:46:46;;;;;;;0.73;0.47;;;7.00;96.70;;;;;;4954540;28;20047;-73
2023/01/22 07:49:15;;;;;;;0.43;0.30;;;7.00;96.70;;;;;;4963362;28;20097;-73
2023/01/22 07:51:43;;;;;;;1.10;0.50;;;7.00;96.70;;;;;;4964580;28;20134;-73
2023/01/22 07:54:11;;;;;;;0.85;0.43;;;7.00;96.70;;;;;;4963441;28;20049;-73
2023/01/22 07:56:39;;;;;;;1.20;0.63;;;7.10;96.70;;;;;;4962282;28;20101;-73
2023/01/22 07:59:07;;;;;;;1.30;0.50;;;7.10;96.70;;;;;;4962391;28;20039;-73
2023/01/22 08:01:35;;;;;;;0.60;0.20;;;7.10;96.70;;;;;;4961662;28;20055;-74
2023/01/22 08:04:03;;;;;;;0.50;0.20;;;7.10;96.70;;;;;;4953174;28;20569;-73
2023/01/22 08:06:32;;;;;;;0.82;0.20;;;7.00;96.70;;;;;;4948440;28;20047;-73
2023/01/22 08:09:00;;;;;;;1.00;0.43;;;7.00;96.70;;;;;;4952359;28;20043;-73
2023/01/22 08:11:29;;;;;;;0.40;0.20;;;6.90;96.70;;;;;;4952301;28;20053;-75
2023/01/22 08:13:57;;;;;;;0.80;0.17;;;6.90;96.70;;;;;;4951826;28;20055;-73
2023/01/22 08:16:24;;;;;;;0.88;0.20;;;6.80;96.70;;;;;;4955021;28;20039;-73
2023/01/22 08:18:52;;;;;;;0.35;0.05;;;6.70;96.70;;;;;;4963680;28;20053;-73
2023/01/22 08:21:20;;;;;;;1.02;0.15;;;6.70;96.70;;;;;;4957237;28;20039;-73
2023/01/22 08:23:50;;;;;;;0.47;0.10;;;6.60;96.70;;;;;;4945816;28;20122;-73
2023/01/22 08:26:18;;;;;;;0.32;0.10;;;6.60;96.70;;;;;;4945421;28;20075;-73
2023/01/22 08:28:45;;;;;;;0.65;0.30;;;6.50;96.70;;;;;;4963680;28;20147;-74
2023/01/22 08:31:13;;;;;;;0.43;0.20;;;6.40;96.70;;;;;;4958540;28;20047;-73
2023/01/22 08:33:53;;;;;;;0.43;0.25;;;6.50;96.70;;;;;;4949707;28;20050;-74
2023/01/22 08:36:22;;;;;;;1.00;0.30;;;6.50;96.70;;;;;;4944955;28;20047;-73
2023/01/22 08:38:51;;;;;;;0.13;0.10;;;6.40;96.70;;;;;;4963427;28;20579;-73
2023/01/22 08:41:19;;;;;;;0.65;0.10;;;6.40;96.70;;;;;;4960464;28;20545;-73
2023/01/22 08:43:47;;;;;;;0.63;0.13;;;6.40;96.70;;;;;;4953583;28;20055;-73
2023/01/22 08:46:14;;;;;;;0.50;0.20;;;6.40;96.70;;;;;;4949414;28;20043;-74
2023/01/22 08:48:43;;;;;;;0.57;0.30;;;6.50;96.70;;;;;;4963371;28;20051;-73
2023/01/22 08:51:11;;;;;;;0.82;0.30;;;6.50;96.70;;;;;;4960904;28;20834;-76
2023/01/22 08:53:39;;;;;;;0.43;0.20;;;6.50;96.70;;;;;;4943094;28;20065;-73
2023/01/22 08:56:09;;;;;;;0.60;0.30;;;6.60;96.70;;;;;;4951980;28;20697;-73
2023/01/22 08:58:37;;;;;;;0.10;0.10;;;6.50;96.70;;;;;;4961822;28;20050;-73
2023/01/22 09:01:05;;;;;;;0.40;0.30;;;6.50;96.70;;;;;;4963193;28;20146;-74
2023/01/22 09:03:33;;;;;;;0.50;0.30;;;6.50;96.70;;;;;;4944514;28;20489;-73
2023/01/22 09:06:07;;;;;;;0.20;0.10;;;6.40;96.70;;;;;;4945899;28;20110;-74
2023/01/22 09:08:35;;;;;;;0.40;0.15;;;6.40;96.70;;;;;;4933827;28;20051;-73
2023/01/22 09:11:03;;;;;;;0.15;0.10;;;6.30;96.70;;;;;;4941511;28;20035;-73
2023/01/22 09:13:32;;;;;;;0.73;0.38;;;6.30;96.70;;;;;;4953627;28;20137;-73
2023/01/22 09:16:00;;;;;;;0.65;0.20;;;6.30;96.70;;;;;;4962758;28;20051;-73
2023/01/22 09:18:29;;;;;;;0.45;0.20;;;6.30;96.70;;;;;;4963095;28;20054;-72
2023/01/22 09:20:58;;;;;;;0.40;0.20;;;6.30;96.70;;;;;;4959009;28;20498;-73
2023/01/22 09:23:26;;;;;;;0.73;0.20;;;6.40;96.70;;;;;;4957149;28;20062;-73
2023/01/22 09:25:54;;;;;;;1.15;0.30;;;6.40;96.70;;;;;;4952171;28;20625;-72
2023/01/22 09:28:22;;;;;;;0.98;0.68;;;6.50;96.70;;;;;;4950996;28;20509;-73
2023/01/22 09:30:51;;;;;;;1.50;0.70;;;6.60;96.70;;;;;;4959725;28;20791;-72
2023/01/22 09:33:20;;;;;;;1.30;0.70;;;6.60;96.70;;;;;;4955710;28;20067;-72
2023/01/22 09:35:48;;;;;;;2.75;1.00;;;6.60;96.70;;;;;;4962331;28;20050;-72
2023/01/22 09:38:20;;;;;;;2.65;0.90;;;6.50;96.70;;;;;;4976982;28;20998;-72
2023/01/22 09:40:53;;;;;;;1.30;0.60;;;6.60;96.70;;;;;;4963648;28;20047;-71
2023/01/22 09:43:29;;;;;;;1.65;0.73;;;6.50;96.70;;;;;;4954276;28;20498;-71
2023/01/22 09:46:02;;;;;;;1.23;0.95;;;6.40;96.70;;;;;;4950138;28;20633;-72
2023/01/22 09:48:36;;;;;;;1.85;1.02;;;6.50;96.70;;;;;;4954155;28;20105;-71
2023/01/22 09:51:05;;;;;;;1.60;1.00;;;6.50;96.70;;;;;;4973580;28;20058;-72
2023/01/22 09:53:33;;;;;;;1.67;1.15;;;6.50;96.70;;;;;;4953198;28;20501;-71
2023/01/22 09:56:06;;;;;;;1.80;0.93;;;6.50;96.70;;;;;;4951699;28;20043;-71
2023/01/22 09:58:35;;;;;;;1.42;0.93;;;6.40;96.70;;;;;;4962022;28;20043;-71
2023/01/22 10:01:06;;;;;;;1.23;0.70;;;6.50;96.70;;;;;;4962709;28;20049;-73
2023/01/22 10:03:39;;;;;;;3.33;0.73;;;6.50;96.70;;;;;;4944600;28;20134;-71
2023/01/22 10:06:11;;;;;;;1.30;0.47;;;6.50;96.70;;;;;;4956125;28;20094;-71
2023/01/22 10:08:53;;;;;;;0.82;0.70;;;6.50;96.70;;;;;;4962636;28;20043;-72
2023/01/22 10:11:21;;;;;;;0.85;0.40;;;6.60;96.70;;;;;;4960951;28;20166;-72
2023/01/22 10:13:53;;;;;;;0.70;0.40;;;6.60;96.70;;;;;;4961352;28;20054;-71
2023/01/22 10:16:23;;;;;;;1.10;0.45;;;6.70;96.70;;;;;;4964325;28;20039;-71
2023/01/22 10:18:54;;;;;;;1.70;0.30;;;6.90;96.70;;;;;;4953934;28;20449;-71
2023/01/22 10:21:25;;;;;;;0.50;0.30;;;7.00;96.70;;;;;;4953162;28;20523;-72
2023/01/22 10:23:56;;;;;;;1.10;0.60;;;7.10;96.70;;;;;;4966111;28;20062;-72
2023/01/22 10:26:32;;;;;;;0.63;0.40;;;7.10;96.70;;;;;;4963944;28;20051;-71
2023/01/22 10:29:04;;;;;;;1.63;0.52;;;7.20;96.70;;;;;;4966021;28;20701;-71
2023/01/22 10:31:36;;;;;;;1.05;0.50;;;7.30;96.70;;;;;;4966314;28;20046;-72
2023/01/22 10:34:13;;;;;;;2.55;1.48;;;7.40;96.70;;;;;;4966105;28;20033;-71
2023/01/22 10:36:47;;;;;;;;;;;7.50;96.70;;;;;;4964440;28;20053;-71
2023/01/22 10:39:16;;;;;;;1.98;1.00;;;7.70;96.70;;;;;;4964290;28;19993;-71
2023/01/22 10:41:46;;;;;;;1.00;0.70;;;7.80;96.70;;;;;;4965087;28;20091;-71
2023/01/22 10:44:20;;;;;;;2.40;1.30;;;8.00;96.70;;;;;;4960228;28;20047;-72
2023/01/22 10:46:51;;;;;;;2.38;1.02;;;8.20;96.70;;;;;;4949359;28;20043;-71
2023/01/22 10:49:20;;;;;;;2.05;1.00;;;8.50;96.70;;;;;;4951948;28;20133;-72
2023/01/22 10:51:52;;;;;;;2.25;0.75;;;8.60;96.70;;;;;;4950493;28;20038;-70
2023/01/22 10:54:26;;;;;;;2.10;0.80;;;8.70;96.70;;;;;;4959196;28;20057;-71
2023/01/22 10:57:04;;;;;;;1.75;0.90;;;8.90;96.70;;;;;;4965923;28;20050;-71
2023/01/22 10:59:33;;;;;;;1.60;1.00;;;9.00;96.70;;;;;;4964465;28;20144;-70
2023/01/22 11:02:22;;;;;;;2.28;1.35;;;9.10;96.70;;;;;;4957553;28;20049;-70
2023/01/22 11:04:51;;;;;;;2.22;1.38;;;9.20;96.70;;;;;;4965495;28;20122;-70
2023/01/22 11:07:22;;;;;;;2.35;1.20;;;9.10;96.70;;;;;;4955510;28;20114;-71
2023/01/22 11:09:57;;;;;;;1.23;0.75;;;9.10;96.70;;;;;;4952151;28;20051;-70
2023/01/22 11:12:28;;;;;;;4.88;1.05;;;9.20;96.70;;;;;;4948018;28;20105;-71
2023/01/22 11:15:04;;;;;;;1.85;1.10;;;9.40;96.70;;;;;;4949205;28;20098;-72
2023/01/22 11:17:37;;;;;;;2.03;1.08;;;9.50;96.70;;;;;;4946226;28;20130;-74
2023/01/22 11:20:19;;;;;;;4.32;1.30;;;9.50;96.70;;;;;;4946131;28;20057;-72
2023/01/22 11:22:59;;;;;;;3.60;1.50;;;9.70;96.70;;;;;;4953004;28;20058;-72
2023/01/22 11:25:36;;;;;;;2.13;1.38;;;9.80;96.70;;;;;;4959536;28;20054;-71
2023/01/22 11:28:12;;;;;;;3.20;1.35;;;9.90;96.70;;;;;;4942023;28;20074;-70
2023/01/22 11:31:01;;;;;;;;;;;9.90;96.70;;;;;;4946568;28;20045;-71
2023/01/22 11:34:05;;;;;;;3.17;2.70;;;10.00;96.70;;;;;;4946805;28;20324;-70
2023/01/22 11:36:39;;;;;;;5.53;2.53;;;10.10;96.70;;;;;;4960911;28;20051;-70
2023/01/22 11:39:17;;;;;;;5.40;3.60;;;10.30;96.70;;;;;;4944561;28;20117;-70
2023/01/22 11:41:58;;;;;;;2.65;1.80;;;10.40;96.70;;;;;;4948465;28;20077;-70
2023/01/22 11:44:54;;;;;;;2.00;1.40;;;10.30;96.70;;;;;;4964226;28;20417;-70
2023/01/22 11:47:48;;;;;;;2.45;1.80;;;10.30;96.70;;;;;;4949456;28;20035;-71
2023/01/22 11:50:26;;;;;;;1.98;1.38;;;10.40;96.70;;;;;;4945740;28;20062;-72
2023/01/22 11:53:12;;;;;;;2.28;1.35;;;10.30;96.70;;;;;;4945258;28;20043;-71
2023/01/22 11:56:02;;;;;;;3.08;2.00;;;10.30;96.70;;;;;;4945692;28;20134;-71
2023/01/22 11:58:37;;;;;;;2.45;1.63;;;10.20;96.70;;;;;;4946313;28;20051;-72
2023/01/22 12:01:17;;;;;;;4.97;2.78;;;10.10;96.70;;;;;;4948578;28;20043;-71
2023/01/22 12:04:15;;;;;;;5.13;3.00;;;10.10;96.70;;;;;;4953588;28;20403;-70
2023/01/22 12:07:18;;;;;;;3.28;1.90;;;10.20;96.70;;;;;;4922942;28;20086;-70
2023/01/22 12:09:54;;;;;;;3.28;2.25;;;10.20;96.70;;;;;;4962910;28;20085;-71
2023/01/22 12:12:34;;;;;;;2.55;1.60;;;10.50;96.70;;;;;;4954933;28;20050;-72
2023/01/22 12:15:25;;;;;;;2.70;1.67;;;10.60;96.70;;;;;;4949164;28;20145;-71
2023/01/22 12:18:06;;;;;;;3.67;2.55;;;10.70;96.70;;;;;;4963988;28;20042;-72
2023/01/22 12:20:48;;;;;;;2.97;2.22;;;10.80;96.70;;;;;;4962377;28;20663;-71
2023/01/22 12:23:23;;;;;;;3.67;2.50;;;11.00;96.70;;;;;;4962587;28;20637;-70
2023/01/22 12:25:56;;;;;;;3.67;2.60;;;11.20;96.70;;;;;;4942396;28;20047;-70
2023/01/22 12:28:29;;;;;;;3.42;2.25;;;11.40;96.70;;;;;;4949849;28;20046;-71
2023/01/22 12:31:01;;;;;;;4.25;2.67;;;11.60;96.70;;;;;;4963626;28;20050;-72
2023/01/22 12:33:33;;;;;;;4.03;2.88;;;11.90;96.70;;;;;;4928266;28;20085;-70
2023/01/22 12:36:04;;;;;;;3.08;1.83;;;12.10;96.70;;;;;;4953351;28;20043;-72
2023/01/22 12:38:41;;;;;;;2.47;1.80;;;12.40;96.70;;;;;;4942271;28;20055;-71
2023/01/22 12:41:24;;;;;;;2.63;1.80;;;12.70;96.70;;;;;;4944463;28;20092;-73
2023/01/22 12:43:55;;;;;;;2.03;1.27;;;12.60;96.70;;;;;;4963946;28;20075;-73
2023/01/22 12:46:31;;;;;;;1.65;1.00;;;12.50;96.70;;;;;;4949680;28;20054;-72
2023/01/22 12:49:06;;;;;;;4.55;1.58;;;12.50;96.70;;;;;;4962069;28;20126;-71
2023/01/22 12:51:38;;;;;;;2.13;1.30;;;12.20;96.70;;;;;;4951924;28;20078;-73
2023/01/22 12:54:31;;;;;;;3.55;1.70;;;12.00;96.70;;;;;;4944540;28;20138;-72
2023/01/22 12:57:11;;;;;;;2.33;1.60;;;11.70;96.70;;;;;;4958920;28;20055;-73
2023/01/22 12:59:44;;;;;;;2.40;1.30;;;11.50;96.70;;;;;;4963503;28;20420;-72
2023/01/22 13:02:36;;;;;;;1.85;1.15;;;11.40;96.70;;;;;;4963299;28;20054;-73
2023/01/22 13:05:38;;;;;;;1.77;0.98;;;11.30;96.70;;;;;;4962209;28;20053;-73
2023/01/22 13:08:25;;;;;;;1.92;1.17;;;11.20;96.70;;;;;;4951269;28;20047;-73
2023/01/22 13:10:58;;;;;;;3.70;1.42;;;11.10;96.70;;;;;;4944394;28;20061;-72
2023/01/22 13:13:30;;;;;;;2.53;1.27;;;11.00;96.70;;;;;;4945771;28;20051;-72
2023/01/22 13:16:02;;;;;;;2.00;0.70;;;11.00;96.70;;;;;;4942826;28;20142;-71
2023/01/22 13:18:38;;;;;;;1.67;0.88;;;11.00;96.70;;;;;;4944357;28;20132;-72
2023/01/22 13:21:08;;;;;;;1.17;0.57;;;11.00;96.70;;;;;;4944989;28;20039;-72
2023/01/22 13:23:42;;;;;;;1.48;0.65;;;11.00;96.70;;;;;;4962910;28;20057;-71
2023/01/22 13:26:18;;;;;;;1.90;0.95;;;10.90;96.70;;;;;;4963093;28;20114;-72
2023/01/22 13:28:51;;;;;;;3.40;2.10;;;11.20;96.70;;;;;;4963032;28;20497;-71